Port Alice, Canada
Current Conditions -  °F | °C
As of 1:00 AM on Friday 31 Oct 2014 (Local Time) from CYZT Reporting Station
Overcast Overcast  
Wind Chill: 45°   Ceiling: 4300
Heat Index: 45°   Visibility: 15mi
Dew Point: 43°   Wind: 3mph
Humidity: 93%   Direction: 220°SW
Pressure: 29.72"   Gusts: NA
Location:  50.38°N, 127.43°W
Report Text: CYZT 310800Z 22003KT 170V230 15SM BKN043 OVC073 07/06 A2972 RMK SC7AC1 SLP064
Loading
Personal Weather Stations






























Interactive Weather Map
Tropical Storm Tracking
New forecast layout! Learn more

10-Day Weather Forecast

Advertisements
Track Severe Weather on mobile